Time;durP1;ratioP1;P1;durP2;ratioP2;P2;SDS_P1;SDS_P2;PMS_P1;PMS_P2;Temp;Humidity;BMP_temperature;BMP_pressure;BME280_temperature;BME280_humidity;BME280_pressure;Samples;Min_cycle;Max_cycle;Signal;HPM_P1;HPM_P2
2022/12/18 00:01:07;;;;;;;26.45;16.90;;;;;;;6.07;56.41;102255.09;5011887;28;20797;-78
2022/12/18 00:03:33;;;;;;;23.48;15.30;;;;;;;6.01;55.97;102249.38;5014661;28;20406;-77
2022/12/18 00:05:59;;;;;;;25.77;15.88;;;;;;;5.86;56.21;102246.78;5011446;28;21007;-78
2022/12/18 00:08:25;;;;;;;25.48;15.73;;;;;;;5.83;55.95;102246.97;5011822;28;20418;-77
2022/12/18 00:10:50;;;;;;;25.75;16.30;;;;;;;6.00;56.19;102252.97;5010871;28;20777;-77
2022/12/18 00:13:16;;;;;;;23.52;14.50;;;;;;;6.02;55.47;102264.25;5009470;28;20862;-77
2022/12/18 00:15:41;;;;;;;24.53;16.43;;;;;;;5.95;55.95;102258.50;5013680;28;20389;-76
2022/12/18 00:18:06;;;;;;;25.37;16.03;;;;;;;6.02;55.82;102259.81;5015233;28;20387;-77
2022/12/18 00:20:36;;;;;;;27.73;16.83;;;;;;;5.99;55.85;102265.28;5022340;28;20731;-76
2022/12/18 00:23:02;;;;;;;28.83;16.88;;;;;;;6.13;55.63;102267.84;5010686;28;20815;-77
2022/12/18 00:25:27;;;;;;;26.17;15.90;;;;;;;6.20;55.62;102270.91;5015217;28;20880;-77
2022/12/18 00:27:53;;;;;;;29.23;18.00;;;;;;;6.26;55.33;102275.75;5021433;28;20542;-78
2022/12/18 00:30:18;;;;;;;26.63;17.15;;;;;;;6.31;55.18;102283.34;5010448;28;20419;-76
2022/12/18 00:32:44;;;;;;;30.07;17.90;;;;;;;6.43;55.17;102292.22;4996691;28;20707;-76
2022/12/18 00:35:09;;;;;;;29.53;18.83;;;;;;;6.57;54.94;102304.44;5011235;28;20442;-77
2022/12/18 00:37:35;;;;;;;27.90;16.67;;;;;;;6.45;54.69;102296.44;5014725;28;20389;-77
2022/12/18 00:40:01;;;;;;;29.35;18.02;;;;;;;6.38;54.79;102302.22;5016148;28;20741;-77
2022/12/18 00:45:10;;;;;;;29.48;16.92;;;;;;;6.03;55.39;102323.81;5011666;28;20383;-77
2022/12/18 00:47:35;;;;;;;27.92;17.00;;;;;;;5.84;56.15;102301.31;5008816;28;20388;-76
2022/12/18 00:50:01;;;;;;;28.77;16.43;;;;;;;5.94;56.43;102312.94;5009380;28;20454;-77
2022/12/18 00:52:26;;;;;;;28.57;18.40;;;;;;;6.09;55.75;102321.66;5011252;28;20397;-77
2022/12/18 00:54:52;;;;;;;28.85;17.13;;;;;;;5.96;56.04;102319.91;5009464;28;20940;-76
2022/12/18 00:57:17;;;;;;;29.43;17.27;;;;;;;5.91;56.55;102322.81;5010000;28;20787;-77
2022/12/18 00:59:43;;;;;;;31.60;18.87;;;;;;;5.99;56.42;102332.88;5008054;28;20376;-76
2022/12/18 01:02:08;;;;;;;29.20;17.67;;;;;;;5.73;56.89;102340.66;5013208;28;20388;-78
2022/12/18 01:04:34;;;;;;;40.20;21.87;;;;;;;5.60;57.08;102344.97;5009565;28;20378;-78
2022/12/18 01:06:59;;;;;;;48.57;23.43;;;;;;;5.78;57.08;102348.22;5012466;28;20892;-77
2022/12/18 01:09:26;;;;;;;32.03;19.80;;;;;;;5.99;56.74;102343.41;4997218;28;20451;-77
2022/12/18 01:11:52;;;;;;;31.30;18.55;;;;;;;5.94;56.81;102327.88;5014155;28;20417;-76
2022/12/18 01:14:17;;;;;;;31.80;19.25;;;;;;;5.98;56.78;102332.03;5010226;28;20423;-77
2022/12/18 01:16:43;;;;;;;31.30;19.00;;;;;;;6.02;56.19;102333.53;5011142;28;20471;-77
2022/12/18 01:19:08;;;;;;;31.10;18.90;;;;;;;6.06;56.31;102327.09;5011194;28;20475;-77
2022/12/18 01:21:34;;;;;;;31.80;20.00;;;;;;;6.16;55.94;102326.50;5009059;28;20378;-77
2022/12/18 01:23:59;;;;;;;29.80;17.88;;;;;;;6.09;56.04;102336.59;5010546;28;20438;-77
2022/12/18 01:26:27;;;;;;;31.13;19.07;;;;;;;6.06;56.57;102339.44;5016091;28;20379;-76
2022/12/18 01:28:54;;;;;;;28.83;17.90;;;;;;;5.93;56.49;102334.94;5014451;28;20427;-76
2022/12/18 01:31:26;;;;;;;28.65;16.83;;;;;;;5.85;56.77;102339.88;5010990;28;20425;-76
2022/12/18 01:33:52;;;;;;;27.45;17.05;;;;;;;5.75;57.35;102334.34;5013814;28;20857;-77
2022/12/18 01:36:23;;;;;;;27.92;17.98;;;;;;;5.96;56.47;102333.06;5016867;28;20409;-77
2022/12/18 01:38:49;;;;;;;28.65;16.83;;;;;;;5.86;56.76;102335.44;5011246;28;20376;-77
2022/12/18 01:41:17;;;;;;;29.95;18.13;;;;;;;5.89;56.62;102338.72;5012103;28;20380;-77
2022/12/18 01:43:57;;;;;;;26.45;15.75;;;;;;;5.70;56.25;102346.94;5012312;28;20388;-76
2022/12/18 01:46:24;;;;;;;26.90;17.10;;;;;;;5.77;56.66;102349.19;5011616;28;20402;-76
2022/12/18 01:48:53;;;;;;;26.13;16.90;;;;;;;5.75;56.50;102350.13;5011266;28;20423;-77
2022/12/18 01:51:19;;;;;;;23.80;16.23;;;;;;;5.65;56.17;102356.91;5013678;28;20440;-76
2022/12/18 01:53:46;;;;;;;25.77;16.80;;;;;;;5.66;56.11;102355.13;5010345;28;20396;-77
2022/12/18 01:56:15;;;;;;;22.88;14.82;;;;;;;5.69;55.88;102362.81;5012526;28;20406;-77
2022/12/18 01:58:50;;;;;;;22.75;14.25;;;;;;;5.70;55.88;102360.09;4993847;28;20685;-77
2022/12/18 02:01:16;;;;;;;25.20;16.05;;;;;;;5.89;55.19;102365.03;5020556;28;20382;-77
2022/12/18 02:03:43;;;;;;;24.63;14.75;;;;;;;5.91;54.86;102364.94;5032238;28;20401;-77
2022/12/18 02:06:20;;;;;;;24.40;16.20;;;;;;;6.12;54.90;102366.22;5032486;28;20378;-77
2022/12/18 02:08:59;;;;;;;30.15;18.58;;;;;;;6.27;54.46;102376.69;5032184;28;20545;-77
2022/12/18 02:11:27;;;;;;;25.38;17.20;;;;;;;6.19;54.50;102376.34;5033080;28;20477;-77
2022/12/18 02:13:58;;;;;;;23.50;13.40;;;;;;;6.16;54.22;102377.38;5033264;28;20423;-77
2022/12/18 02:16:26;;;;;;;20.90;14.30;;;;;;;6.15;53.97;102386.22;5032523;28;20378;-77
2022/12/18 02:18:58;;;;;;;22.80;14.20;;;;;;;6.14;54.30;102376.66;5033257;28;20459;-77
2022/12/18 02:21:44;;;;;;;22.63;15.13;;;;;;;6.13;54.15;102377.59;5033824;28;20750;-77
2022/12/18 02:24:28;;;;;;;22.30;15.10;;;;;;;5.94;54.93;102377.88;4989717;28;20397;-77
2022/12/18 02:27:01;;;;;;;25.50;15.82;;;;;;;5.93;54.89;102371.78;5014802;28;20387;-77
2022/12/18 02:29:36;;;;;;;24.08;15.75;;;;;;;5.91;54.87;102380.72;5031859;28;20421;-76
2022/12/18 02:32:05;;;;;;;22.85;14.73;;;;;;;5.70;55.14;102383.78;5000583;28;20401;-76
2022/12/18 02:34:36;;;;;;;25.70;15.70;;;;;;;5.72;55.60;102376.63;5031964;28;20386;-77
2022/12/18 02:37:06;;;;;;;22.50;14.35;;;;;;;5.73;55.49;102385.38;5031939;28;20385;-77
2022/12/18 02:39:34;;;;;;;24.42;15.60;;;;;;;5.77;55.14;102401.81;5031979;28;20462;-76
2022/12/18 02:42:02;;;;;;;25.17;15.00;;;;;;;5.75;55.11;102396.66;5013938;28;20486;-77
2022/12/18 02:44:27;;;;;;;21.00;14.40;;;;;;;5.68;55.23;102398.81;5031576;28;20394;-77
2022/12/18 02:46:53;;;;;;;23.53;15.63;;;;;;;5.70;55.34;102394.28;5014116;28;20379;-77
2022/12/18 02:49:50;;;;;;;25.20;15.65;;;;;;;5.68;55.09;102400.59;5031467;28;20417;-76
2022/12/18 02:52:24;;;;;;;24.83;16.30;;;;;;;5.65;55.60;102400.78;5013387;28;21318;-77
2022/12/18 02:54:55;;;;;;;23.63;14.98;;;;;;;5.54;55.41;102404.09;5031441;28;20413;-77
2022/12/18 02:57:50;;;;;;;26.85;16.38;;;;;;;5.48;55.63;102405.31;5031216;28;20897;-76
2022/12/18 03:00:20;;;;;;;21.70;13.55;;;;;;;5.40;55.43;102404.94;5031310;28;20386;-77
2022/12/18 03:02:59;;;;;;;22.70;13.98;;;;;;;5.44;55.79;102408.22;5031468;28;20855;-77
2022/12/18 03:05:36;;;;;;;23.08;15.15;;;;;;;5.50;55.70;102413.13;5031347;28;20405;-77
2022/12/18 03:08:14;;;;;;;25.77;16.13;;;;;;;5.49;55.35;102411.41;5030694;28;20433;-77
2022/12/18 03:10:45;;;;;;;25.15;16.27;;;;;;;5.40;55.86;102414.63;5030851;28;20394;-76
2022/12/18 03:13:21;;;;;;;22.38;14.20;;;;;;;5.27;56.30;102432.94;5031046;28;20390;-77
2022/12/18 03:15:51;;;;;;;21.90;14.15;;;;;;;5.26;56.44;102437.34;5030961;28;20480;-78
2022/12/18 03:18:21;;;;;;;24.25;15.43;;;;;;;5.37;55.58;102444.59;5028229;28;20382;-77
2022/12/18 03:20:50;;;;;;;24.80;15.55;;;;;;;5.40;55.71;102444.38;5032090;28;20438;-77
2022/12/18 03:23:22;;;;;;;23.45;14.60;;;;;;;5.36;55.71;102453.41;5031136;28;20375;-78
2022/12/18 03:25:51;;;;;;;25.23;15.88;;;;;;;5.49;55.78;102449.09;5033684;28;20383;-78
2022/12/18 03:28:21;;;;;;;23.20;14.93;;;;;;;5.35;56.17;102444.69;5032585;28;20398;-78
2022/12/18 03:30:49;;;;;;;26.13;16.25;;;;;;;5.52;55.39;102446.25;5027294;28;20412;-77
2022/12/18 03:33:19;;;;;;;24.07;15.90;;;;;;;5.62;54.91;102446.56;5018765;28;20427;-77
2022/12/18 03:35:46;;;;;;;27.27;16.47;;;;;;;5.49;55.48;102450.88;5013008;28;20380;-77
2022/12/18 03:38:12;;;;;;;24.30;15.30;;;;;;;5.33;55.73;102449.19;5012343;28;20408;-77
2022/12/18 03:41:04;;;;;;;26.15;15.38;;;;;;;5.32;55.77;102459.81;5012002;28;20376;-77
2022/12/18 03:43:30;;;;;;;25.02;15.52;;;;;;;5.37;55.28;102460.38;5011485;28;20928;-77
2022/12/18 03:46:40;;;;;;;24.87;14.93;;;;;;;5.24;55.40;102468.16;5017539;28;20380;-77
2022/12/18 03:49:30;;;;;;;22.75;13.40;;;;;;;4.99;55.78;102476.66;5009553;28;20907;-77
2022/12/18 03:52:11;;;;;;;23.03;14.57;;;;;;;4.97;55.69;102474.09;5011006;28;20482;-78
2022/12/18 03:54:39;;;;;;;22.48;13.93;;;;;;;5.11;54.96;102496.09;5012926;28;20397;-78
2022/12/18 03:57:11;;;;;;;22.10;14.00;;;;;;;5.31;54.42;102489.66;5015799;28;20717;-77
2022/12/18 03:59:39;;;;;;;24.88;15.13;;;;;;;5.40;54.00;102488.25;5014589;28;20395;-77
2022/12/18 04:02:07;;;;;;;25.20;15.02;;;;;;;5.41;54.18;102497.84;5011575;28;20744;-76
2022/12/18 04:04:37;;;;;;;23.52;15.02;;;;;;;5.44;54.25;102497.66;5011847;28;20756;-76
2022/12/18 04:07:04;;;;;;;23.52;14.52;;;;;;;5.49;54.11;102501.72;5012221;28;20453;-77
2022/12/18 04:09:31;;;;;;;24.38;15.18;;;;;;;5.43;54.05;102503.84;5014124;28;20412;-77
2022/12/18 04:11:57;;;;;;;23.65;14.38;;;;;;;5.24;54.36;102501.47;5011474;28;20491;-77
2022/12/18 04:14:22;;;;;;;23.50;15.63;;;;;;;5.30;53.92;102501.13;5013108;28;20446;-77
2022/12/18 04:16:48;;;;;;;23.20;14.83;;;;;;;5.31;53.92;102494.91;5013001;28;20388;-77
2022/12/18 04:19:13;;;;;;;24.00;14.88;;;;;;;5.13;53.80;102494.22;5009982;28;20694;-77
2022/12/18 04:21:39;;;;;;;22.60;14.80;;;;;;;5.19;54.28;102491.25;5013704;28;20466;-77
2022/12/18 04:24:04;;;;;;;26.43;15.13;;;;;;;5.33;53.53;102496.53;5011314;28;20391;-77
2022/12/18 04:26:30;;;;;;;24.77;15.53;;;;;;;5.44;53.91;102498.50;5010904;28;20380;-77
2022/12/18 04:28:55;;;;;;;24.47;15.40;;;;;;;5.45;53.57;102494.09;5011866;28;20847;-77
2022/12/18 04:31:21;;;;;;;26.80;15.85;;;;;;;5.39;53.55;102499.72;5011533;28;20407;-77
2022/12/18 04:33:47;;;;;;;32.15;18.52;;;;;;;5.54;53.58;102504.06;5011836;28;20937;-77
2022/12/18 04:36:12;;;;;;;26.33;16.13;;;;;;;5.48;53.39;102507.06;5009901;28;20388;-77
2022/12/18 04:38:38;;;;;;;26.48;16.52;;;;;;;5.38;53.83;102490.97;5012093;28;20860;-77
2022/12/18 04:41:03;;;;;;;25.27;15.07;;;;;;;5.47;53.95;102497.47;5014465;28;20407;-77
2022/12/18 04:43:29;;;;;;;24.70;14.20;;;;;;;5.53;53.66;102502.38;5014154;28;20390;-77
2022/12/18 04:46:02;;;;;;;23.57;14.77;;;;;;;5.39;53.32;102503.19;5016671;28;20776;-77
2022/12/18 04:48:28;;;;;;;23.65;14.13;;;;;;;5.34;53.55;102507.88;5011140;28;20408;-78
2022/12/18 04:50:53;;;;;;;23.07;14.20;;;;;;;5.37;53.80;102518.22;5011771;28;20402;-78
2022/12/18 04:53:18;;;;;;;23.90;14.13;;;;;;;5.33;53.55;102519.31;5013081;28;20395;-78
2022/12/18 04:55:44;;;;;;;23.27;14.00;;;;;;;5.43;53.03;102525.75;5011694;28;20964;-77
2022/12/18 04:58:09;;;;;;;22.23;14.83;;;;;;;5.35;53.75;102530.63;5012840;28;20372;-77
2022/12/18 05:00:35;;;;;;;24.43;15.17;;;;;;;5.36;53.21;102538.41;5012189;28;20408;-77
2022/12/18 05:03:02;;;;;;;24.25;13.98;;;;;;;5.25;53.79;102551.34;5012449;28;20415;-77
2022/12/18 05:05:27;;;;;;;22.58;12.68;;;;;;;5.05;53.55;102549.03;5010644;28;20391;-77
2022/12/18 05:07:53;;;;;;;21.52;13.63;;;;;;;5.15;54.10;102552.84;5013187;28;20412;-77
2022/12/18 05:10:18;;;;;;;25.27;14.45;;;;;;;5.17;53.54;102550.97;5012133;28;20393;-77
2022/12/18 05:12:59;;;;;;;24.20;15.37;;;;;;;5.26;53.87;102542.53;5009554;28;20726;-77
2022/12/18 05:15:27;;;;;;;23.50;14.57;;;;;;;5.25;53.59;102540.81;5011194;28;20750;-77
2022/12/18 05:17:53;;;;;;;23.25;14.18;;;;;;;5.28;53.81;102553.78;5012070;28;20390;-77
2022/12/18 05:20:19;;;;;;;25.63;14.90;;;;;;;5.18;54.17;102552.63;5010258;28;20471;-77
2022/12/18 05:22:44;;;;;;;23.38;14.60;;;;;;;5.17;54.03;102551.78;5010133;28;20383;-78
2022/12/18 05:25:09;;;;;;;22.53;14.17;;;;;;;5.12;54.50;102559.09;5010869;28;20416;-79
2022/12/18 05:27:35;;;;;;;25.20;16.47;;;;;;;5.12;54.08;102559.09;5013153;28;20391;-77
2022/12/18 05:30:00;;;;;;;26.43;14.03;;;;;;;5.21;54.08;102573.50;5012625;28;20488;-78
2022/12/18 05:32:26;;;;;;;23.50;14.48;;;;;;;5.24;53.79;102561.94;5010942;28;20384;-78
2022/12/18 05:34:51;;;;;;;24.73;15.40;;;;;;;5.38;53.76;102582.19;5013294;28;20449;-77
2022/12/18 05:37:17;;;;;;;28.60;16.67;;;;;;;5.40;54.12;102575.88;5014746;28;21334;-77
2022/12/18 05:39:43;;;;;;;25.40;15.25;;;;;;;5.21;54.27;102575.28;5014120;28;20398;-77
2022/12/18 05:42:09;;;;;;;24.10;15.52;;;;;;;5.19;54.86;102577.16;5017002;28;20402;-78
2022/12/18 05:44:35;;;;;;;27.50;16.42;;;;;;;5.38;54.44;102579.56;5017487;28;20380;-78
2022/12/18 05:47:00;;;;;;;24.70;14.57;;;;;;;5.36;54.25;102584.91;5013890;28;20398;-78
2022/12/18 05:49:26;;;;;;;27.73;16.33;;;;;;;5.53;54.33;102586.56;5019278;28;20416;-78
2022/12/18 05:51:51;;;;;;;25.52;15.80;;;;;;;5.35;54.23;102585.84;5015427;28;20423;-78
2022/12/18 05:54:17;;;;;;;26.83;16.37;;;;;;;5.28;54.60;102592.41;5018095;28;20470;-79
2022/12/18 05:56:42;;;;;;;29.10;16.27;;;;;;;5.26;54.67;102589.84;5018298;28;20392;-78
2022/12/18 05:59:09;;;;;;;27.53;15.37;;;;;;;5.26;54.58;102587.22;5020437;28;20455;-77
2022/12/18 06:01:35;;;;;;;25.27;15.43;;;;;;;5.34;54.48;102597.28;5014614;28;20871;-77
2022/12/18 06:04:00;;;;;;;28.30;15.83;;;;;;;5.35;54.78;102597.19;5015990;28;20392;-77
2022/12/18 06:06:27;;;;;;;26.58;16.08;;;;;;;5.44;54.49;102590.56;5015328;28;20399;-77
2022/12/18 06:08:53;;;;;;;27.25;15.15;;;;;;;5.38;54.25;102590.91;5016687;28;20415;-77
2022/12/18 06:11:21;;;;;;;28.60;15.40;;;;;;;5.54;53.41;102598.75;5014708;28;20392;-78
2022/12/18 06:13:50;;;;;;;24.75;14.23;;;;;;;5.64;53.69;102594.66;5010940;28;20389;-77
2022/12/18 06:16:15;;;;;;;24.25;14.70;;;;;;;5.62;53.22;102600.91;5017838;28;20396;-77
2022/12/18 06:18:41;;;;;;;26.80;15.00;;;;;;;5.71;53.46;102608.28;5015777;28;20388;-77
2022/12/18 06:21:06;;;;;;;23.87;14.27;;;;;;;5.65;53.10;102614.75;5017535;28;20390;-77
2022/12/18 06:23:32;;;;;;;26.20;15.40;;;;;;;5.64;53.54;102607.78;5017861;28;20853;-77
2022/12/18 06:25:57;;;;;;;26.48;14.70;;;;;;;5.74;53.62;102626.50;5014580;28;20406;-77
2022/12/18 06:28:23;;;;;;;27.40;15.27;;;;;;;5.68;53.62;102640.03;5013220;28;20416;-77
2022/12/18 06:30:49;;;;;;;25.20;15.57;;;;;;;5.76;53.15;102645.69;5014755;28;20746;-77
2022/12/18 06:33:16;;;;;;;25.52;15.68;;;;;;;5.71;53.47;102648.59;5019502;28;20812;-77
2022/12/18 06:35:41;;;;;;;24.27;14.45;;;;;;;5.72;53.54;102645.00;5026262;28;20405;-78
2022/12/18 06:38:07;;;;;;;26.80;14.97;;;;;;;5.71;53.27;102648.59;5011144;28;20386;-77
2022/12/18 06:40:33;;;;;;;25.15;14.77;;;;;;;5.73;53.46;102661.66;5029210;28;20477;-77
2022/12/18 06:42:58;;;;;;;27.33;16.07;;;;;;;5.86;53.97;102657.38;5028133;28;20492;-79
2022/12/18 06:45:24;;;;;;;26.07;14.77;;;;;;;5.82;53.73;102660.28;5025366;28;20490;-78
2022/12/18 06:47:50;;;;;;;28.50;16.60;;;;;;;5.87;53.98;102652.94;5026768;28;20386;-77
2022/12/18 06:50:15;;;;;;;25.23;15.45;;;;;;;5.78;54.06;102664.88;5026467;28;20471;-77
2022/12/18 06:52:42;;;;;;;26.00;16.10;;;;;;;5.96;53.25;102680.53;5025627;28;20466;-77
2022/12/18 06:55:08;;;;;;;24.70;14.68;;;;;;;5.81;53.36;102675.19;5025640;28;20392;-77
2022/12/18 06:57:34;;;;;;;26.40;15.73;;;;;;;5.90;53.14;102682.56;5025525;28;20396;-77
2022/12/18 06:59:59;;;;;;;25.88;14.55;;;;;;;5.93;53.33;102689.44;5023662;28;20421;-77
2022/12/18 07:02:25;;;;;;;24.92;14.73;;;;;;;6.00;53.18;102696.06;5026457;28;20503;-77
2022/12/18 07:04:50;;;;;;;25.97;14.93;;;;;;;5.95;53.15;102695.47;5016830;28;20386;-77
2022/12/18 07:07:16;;;;;;;24.53;14.93;;;;;;;6.09;52.84;102705.22;5018554;28;20444;-77
2022/12/18 07:09:41;;;;;;;24.05;15.65;;;;;;;5.90;52.85;102697.50;5021378;28;20735;-78
2022/12/18 07:12:07;;;;;;;25.33;14.77;;;;;;;6.08;52.59;102701.72;5020411;28;20456;-77
2022/12/18 07:14:34;;;;;;;25.52;14.75;;;;;;;6.08;52.25;102706.13;5025190;28;20382;-77
2022/12/18 07:16:59;;;;;;;23.58;14.73;;;;;;;6.03;52.36;102716.09;5018203;28;20756;-77
2022/12/18 07:19:25;;;;;;;23.97;14.23;;;;;;;6.05;52.28;102707.19;5015220;28;20392;-79
2022/12/18 07:21:50;;;;;;;24.80;15.20;;;;;;;5.90;52.65;102708.88;5021925;28;20401;-77
2022/12/18 07:24:16;;;;;;;23.55;13.15;;;;;;;5.81;52.58;102719.94;5020450;28;20415;-77
2022/12/18 07:26:41;;;;;;;26.20;15.40;;;;;;;5.79;51.95;102713.09;5019530;28;20913;-78
2022/12/18 07:29:07;;;;;;;23.17;14.50;;;;;;;5.84;51.99;102716.31;5019131;28;20913;-78
2022/12/18 07:31:33;;;;;;;28.55;17.73;;;;;;;5.73;51.74;102709.03;5017126;28;20731;-77
2022/12/18 07:33:58;;;;;;;24.37;14.67;;;;;;;5.78;51.69;102714.00;5014702;28;20376;-77
2022/12/18 07:36:24;;;;;;;24.57;14.63;;;;;;;5.79;51.16;102729.72;5013370;28;20383;-77
2022/12/18 07:38:51;;;;;;;26.87;15.80;;;;;;;5.73;51.55;102719.56;5013444;28;20376;-76
2022/12/18 07:41:18;;;;;;;24.20;14.82;;;;;;;5.74;50.97;102735.25;5019726;28;20376;-77
2022/12/18 07:43:44;;;;;;;22.50;13.32;;;;;;;5.76;51.04;102729.88;5016214;28;20390;-77
2022/12/18 07:46:13;;;;;;;28.42;16.85;;;;;;;5.86;50.40;102725.78;5011424;28;20387;-77
2022/12/18 07:48:39;;;;;;;21.60;12.60;;;;;;;5.98;50.39;102731.31;5010283;28;20454;-76
2022/12/18 07:51:06;;;;;;;21.10;12.55;;;;;;;6.03;49.71;102731.88;5016958;28;20512;-77
2022/12/18 07:53:34;;;;;;;23.60;12.80;;;;;;;6.23;49.77;102728.06;5016009;28;20420;-77
2022/12/18 07:56:02;;;;;;;17.83;11.25;;;;;;;6.06;49.46;102740.44;5014820;28;20391;-77
2022/12/18 07:58:29;;;;;;;18.95;12.50;;;;;;;6.07;49.53;102730.78;5007091;28;20867;-77
2022/12/18 08:01:06;;;;;;;20.00;11.83;;;;;;;6.27;48.84;102738.34;5007489;28;20388;-78
2022/12/18 08:03:31;;;;;;;19.08;10.63;;;;;;;6.25;48.70;102742.84;5024826;28;20402;-78
2022/12/18 08:06:01;;;;;;;15.00;9.27;;;;;;;6.25;48.52;102739.38;5022174;28;20403;-78
2022/12/18 08:08:27;;;;;;;17.98;10.90;;;;;;;6.38;48.16;102748.22;5012423;28;20404;-78
2022/12/18 08:10:52;;;;;;;16.65;10.55;;;;;;;6.47;48.62;102766.09;5018276;28;20889;-77
2022/12/18 08:13:18;;;;;;;16.50;9.73;;;;;;;6.58;48.33;102757.56;5022003;28;20398;-76
2022/12/18 08:15:43;;;;;;;16.65;9.70;;;;;;;6.48;47.74;102764.31;5031690;28;20386;-76
2022/12/18 08:18:09;;;;;;;18.50;10.87;;;;;;;6.63;47.79;102763.41;5031581;28;20473;-77
2022/12/18 08:20:34;;;;;;;16.00;9.37;;;;;;;6.69;47.55;102775.34;5032475;28;20382;-77
2022/12/18 08:22:59;;;;;;;19.63;10.93;;;;;;;6.88;47.38;102778.56;5031728;28;20382;-78
2022/12/18 08:25:25;;;;;;;17.77;10.37;;;;;;;6.64;47.61;102767.72;5031185;28;20379;-77
2022/12/18 08:27:51;;;;;;;16.63;10.17;;;;;;;6.65;46.93;102773.84;5014111;28;20393;-78
2022/12/18 08:30:16;;;;;;;16.52;10.00;;;;;;;6.79;46.74;102775.63;5020181;28;20408;-79
2022/12/18 08:32:42;;;;;;;15.77;9.50;;;;;;;6.77;46.77;102769.59;5015379;28;20388;-79
2022/12/18 08:35:08;;;;;;;18.93;11.97;;;;;;;6.53;46.59;102771.97;5015410;28;20450;-78
2022/12/18 08:37:34;;;;;;;18.08;10.38;;;;;;;6.48;46.36;102769.59;5016371;28;20462;-78
2022/12/18 08:39:59;;;;;;;14.07;8.23;;;;;;;6.13;46.28;102773.38;5017582;28;20499;-77
2022/12/18 08:45:09;;;;;;;18.40;10.70;;;;;;;6.66;46.34;102759.72;5020607;28;20969;-78
2022/12/18 08:47:35;;;;;;;33.83;18.00;;;;;;;7.01;46.37;102773.38;5030330;28;20371;-79
2022/12/18 08:50:00;;;;;;;13.17;8.30;;;;;;;6.73;45.25;102761.03;5030961;28;20548;-78
2022/12/18 08:52:26;;;;;;;12.60;7.72;;;;;;;6.59;45.08;102776.84;5018769;28;20391;-78
2022/12/18 08:54:51;;;;;;;17.60;8.87;;;;;;;6.88;45.34;102777.72;5019371;28;20379;-78
2022/12/18 08:57:17;;;;;;;14.93;9.47;;;;;;;6.77;44.58;102767.84;5030684;28;20382;-78
2022/12/18 08:59:42;;;;;;;15.07;9.35;;;;;;;6.76;44.47;102765.28;5031422;28;20461;-78
2022/12/18 09:02:11;;;;;;;12.30;8.07;;;;;;;6.89;44.78;102769.69;5021804;28;20857;-81
2022/12/18 09:04:37;;;;;;;17.27;10.23;;;;;;;6.89;44.86;102761.78;5010264;28;20444;-77
2022/12/18 09:07:02;;;;;;;18.90;10.73;;;;;;;7.08;45.10;102769.41;5030335;28;20397;-79
2022/12/18 09:09:28;;;;;;;19.27;10.27;;;;;;;7.05;44.90;102763.47;5019018;28;20419;-78
2022/12/18 09:11:53;;;;;;;20.75;11.70;;;;;;;7.14;45.53;102760.25;5023981;28;20400;-78
2022/12/18 09:14:18;;;;;;;17.97;9.97;;;;;;;6.77;45.12;102751.16;5017149;28;20446;-78
2022/12/18 09:16:44;;;;;;;16.30;9.27;;;;;;;6.84;45.04;102744.56;5018912;28;20383;-78
2022/12/18 09:19:10;;;;;;;47.25;23.23;;;;;;;6.61;45.25;102748.59;5021704;28;21118;-78
2022/12/18 09:21:38;;;;;;;18.80;11.13;;;;;;;6.90;44.81;102741.56;5024904;28;20382;-78
2022/12/18 09:24:04;;;;;;;15.05;8.90;;;;;;;6.72;44.54;102740.91;5025330;28;20395;-78
2022/12/18 09:26:30;;;;;;;13.52;8.80;;;;;;;6.75;44.30;102745.97;5029110;28;20904;-78
2022/12/18 09:28:56;;;;;;;14.67;8.13;;;;;;;6.75;44.24;102737.22;5032206;28;20414;-78
2022/12/18 09:31:22;;;;;;;15.48;9.27;;;;;;;6.97;44.10;102750.78;5029671;28;20487;-77
2022/12/18 09:33:48;;;;;;;12.63;8.00;;;;;;;6.71;44.42;102749.75;5029665;28;20390;-77
2022/12/18 09:36:17;;;;;;;16.33;11.27;;;;;;;6.87;45.14;102752.28;5024063;28;20395;-77
2022/12/18 09:38:42;;;;;;;21.60;11.77;;;;;;;6.75;44.98;102742.50;5026263;28;20440;-78
2022/12/18 09:41:23;;;;;;;17.97;11.00;;;;;;;7.01;44.11;102760.19;5023813;28;20388;-78
2022/12/18 09:43:54;;;;;;;15.90;9.20;;;;;;;6.81;43.93;102752.69;5020229;28;20486;-78
2022/12/18 09:46:36;;;;;;;16.88;9.98;;;;;;;6.50;44.41;102758.03;5002578;28;20489;-77
2022/12/18 09:49:10;;;;;;;21.07;11.97;;;;;;;6.71;44.07;102749.75;5016510;28;20888;-77
2022/12/18 09:51:47;;;;;;;13.30;8.90;;;;;;;6.62;44.58;102755.59;5033859;28;20390;-78
2022/12/18 09:54:21;;;;;;;14.95;8.98;;;;;;;6.57;45.08;102752.38;5030687;28;20448;-78
2022/12/18 09:56:46;;;;;;;14.45;9.25;;;;;;;6.42;44.97;102746.25;5031128;28;20393;-78
2022/12/18 09:59:27;;;;;;;16.48;10.55;;;;;;;6.82;44.82;102743.81;5029509;28;20446;-78
2022/12/18 10:01:52;;;;;;;12.95;7.47;;;;;;;6.72;43.89;102737.41;5029485;28;20481;-77
2022/12/18 10:04:18;;;;;;;16.37;9.80;;;;;;;6.69;44.51;102741.94;5022924;28;20475;-78
2022/12/18 10:06:58;;;;;;;14.57;8.07;;;;;;;6.88;44.04;102743.44;5017256;28;20865;-77
2022/12/18 10:09:44;;;;;;;12.30;7.70;;;;;;;6.70;42.98;102734.88;5020513;28;20799;-77
2022/12/18 10:12:28;;;;;;;12.27;7.28;;;;;;;6.58;43.17;102746.19;5017198;28;20479;-78
2022/12/18 10:15:18;;;;;;;18.60;10.75;;;;;;;6.88;44.28;102752.19;5013981;28;20399;-78
2022/12/18 10:18:05;;;;;;;23.17;12.90;;;;;;;7.32;43.24;102750.31;5017379;28;20392;-77
2022/12/18 10:20:47;;;;;;;26.77;14.07;;;;;;;7.45;43.17;102748.59;5013167;28;20407;-77
2022/12/18 10:23:41;;;;;;;14.60;8.15;;;;;;;6.99;42.45;102753.31;5015097;28;20512;-79
2022/12/18 10:26:10;;;;;;;20.80;11.27;;;;;;;6.98;42.56;102752.44;5018006;28;20384;-76
2022/12/18 10:28:38;;;;;;;13.82;9.02;;;;;;;6.97;42.12;102763.09;5014209;28;20889;-77
2022/12/18 10:31:18;;;;;;;14.88;9.07;;;;;;;7.11;42.15;102756.97;5017046;28;20507;-77
2022/12/18 10:33:44;;;;;;;13.70;8.13;;;;;;;7.12;41.37;102763.94;5015796;28;20383;-77
2022/12/18 10:36:09;;;;;;;15.50;9.23;;;;;;;6.94;42.20;102769.41;5019461;28;20392;-77
2022/12/18 10:38:35;;;;;;;13.43;8.03;;;;;;;6.77;41.93;102766.97;5026856;28;20444;-78
2022/12/18 10:41:11;;;;;;;12.67;7.10;;;;;;;6.93;41.72;102751.06;5031795;28;20508;-78
2022/12/18 10:43:38;;;;;;;13.65;7.80;;;;;;;6.76;41.81;102766.13;5028855;28;20473;-77
2022/12/18 10:46:09;;;;;;;13.25;8.38;;;;;;;6.79;42.28;102767.72;5031386;28;20393;-77
2022/12/18 10:48:41;;;;;;;15.77;9.32;;;;;;;7.18;42.31;102771.44;5030182;28;20410;-77
2022/12/18 10:51:07;;;;;;;15.82;8.95;;;;;;;7.39;41.59;102785.06;5023451;28;20756;-77
2022/12/18 10:53:35;;;;;;;13.25;9.10;;;;;;;7.28;42.35;102783.97;5017643;28;20401;-78
2022/12/18 10:56:04;;;;;;;16.33;8.93;;;;;;;7.13;42.78;102781.44;5016409;28;20392;-77
2022/12/18 10:58:35;;;;;;;11.30;7.78;;;;;;;7.14;41.82;102797.16;5026347;28;20410;-77
2022/12/18 11:01:15;;;;;;;14.43;8.70;;;;;;;7.08;42.01;102785.22;5019129;28;20892;-77
2022/12/18 11:03:45;;;;;;;14.32;8.77;;;;;;;7.25;41.74;102789.41;5014483;28;20427;-77
2022/12/18 11:06:19;;;;;;;17.20;9.35;;;;;;;7.41;42.00;102781.38;5021638;28;20871;-77
2022/12/18 11:09:16;;;;;;;12.88;8.75;;;;;;;7.47;41.41;102788.06;5028094;28;20763;-78
2022/12/18 11:11:49;;;;;;;15.98;8.65;;;;;;;7.56;41.35;102787.50;5036920;28;20382;-77
2022/12/18 11:14:21;;;;;;;17.95;11.48;;;;;;;7.78;41.55;102794.84;5032720;28;20469;-76
2022/12/18 11:16:48;;;;;;;19.75;12.68;;;;;;;7.97;41.51;102783.91;5016883;28;20399;-76
2022/12/18 11:19:36;;;;;;;12.60;8.15;;;;;;;7.67;40.90;102781.50;5026096;28;20474;-77
2022/12/18 11:22:20;;;;;;;16.05;8.63;;;;;;;7.60;40.33;102788.97;5020582;28;20376;-78
2022/12/18 11:24:53;;;;;;;16.23;9.30;;;;;;;7.71;40.39;102782.16;5021806;28;20400;-79
2022/12/18 11:27:19;;;;;;;14.88;9.75;;;;;;;7.97;40.50;102781.25;5027884;28;20385;-78
2022/12/18 11:29:44;;;;;;;15.50;9.43;;;;;;;7.94;41.08;102785.91;5022031;28;20408;-78
2022/12/18 11:32:38;;;;;;;12.13;8.00;;;;;;;7.70;39.85;102756.69;5011296;28;20391;-77